Time;durP1;ratioP1;P1;durP2;ratioP2;P2;SDS_P1;SDS_P2;PMS_P1;PMS_P2;Temp;Humidity;BMP_temperature;BMP_pressure;BME280_temperature;BME280_humidity;BME280_pressure;Samples;Min_cycle;Max_cycle;Signal;HPM_P1;HPM_P2
2022/05/11 00:04:22;;;;;;;0.20;0.20;;;13.60;88.70;;;12.07;66.14;100385.94;10319968;28;98132;-78
2022/05/11 00:09:25;;;;;;;1.00;0.50;;;13.50;88.80;;;12.02;66.59;100379.28;10321379;28;96696;-78
2022/05/11 00:14:28;;;;;;;0.67;0.33;;;13.40;89.80;;;11.97;67.10;100372.81;10344838;28;97113;-78
2022/05/11 00:19:31;;;;;;;0.37;0.33;;;13.40;91.10;;;11.82;67.65;100375.38;10329941;28;97381;-78
2022/05/11 00:24:34;;;;;;;0.20;0.13;;;13.30;92.10;;;11.76;67.64;100371.53;10330615;28;97236;-78
2022/05/11 00:29:36;;;;;;;0.63;0.50;;;13.20;92.00;;;11.69;68.17;100370.53;10330635;28;96791;-78
2022/05/11 00:34:39;;;;;;;0.30;0.30;;;13.20;92.80;;;11.67;67.96;100367.22;10301025;28;96806;-78
2022/05/11 00:39:42;;;;;;;0.13;0.13;;;13.10;92.10;;;11.63;68.05;100373.88;10293125;28;96625;-77
2022/05/11 00:44:45;;;;;;;0.93;0.53;;;13.10;92.90;;;11.56;68.39;100366.75;10344764;28;96623;-77
2022/05/11 00:49:58;;;;;;;0.10;0.10;;;13.00;93.80;;;11.50;68.76;100374.41;10364430;28;96986;-77
2022/05/11 00:55:08;;;;;;;0.37;0.30;;;13.00;94.40;;;11.42;69.10;100368.28;10319998;28;96641;-77
2022/05/11 01:00:13;;;;;;;3.77;0.93;;;12.90;94.80;;;11.37;69.65;100371.47;10305948;28;97037;-77
2022/05/11 01:05:15;;;;;;;0.33;0.33;;;12.80;96.50;;;11.27;70.01;100376.13;10303232;28;97068;-79
2022/05/11 01:10:18;;;;;;;0.70;0.40;;;12.70;96.90;;;11.21;70.37;100376.78;10316006;28;97934;-77
2022/05/11 01:15:23;;;;;;;0.63;0.30;;;12.60;97.30;;;11.18;70.35;100370.00;10330474;28;98996;-78
2022/05/11 01:20:30;;;;;;;0.17;0.10;;;12.60;98.10;;;11.13;70.71;100374.16;10340123;28;98916;-78
2022/05/11 01:25:33;;;;;;;0.40;0.20;;;12.60;98.30;;;11.08;70.97;100373.81;10328621;28;98292;-79
2022/05/11 01:30:36;;;;;;;0.27;0.23;;;12.50;99.60;;;11.04;71.03;100372.50;10324889;28;96672;-79
2022/05/11 01:35:45;;;;;;;1.27;0.53;;;12.50;99.20;;;11.03;71.80;100374.31;10323141;28;97707;-78
2022/05/11 01:40:48;;;;;;;0.37;0.33;;;12.50;99.80;;;10.98;71.76;100380.13;10330432;28;96583;-78
2022/05/11 01:45:51;;;;;;;0.93;0.60;;;12.40;99.90;;;10.96;72.64;100379.47;10334833;28;97430;-78
2022/05/11 01:50:55;;;;;;;1.60;0.60;;;12.40;99.90;;;10.90;72.55;100372.16;10326385;28;96568;-78
2022/05/11 01:55:58;;;;;;;1.23;0.60;;;12.30;99.90;;;10.87;72.71;100374.31;10329153;28;96565;-78
2022/05/11 02:01:00;;;;;;;0.73;0.23;;;12.30;99.90;;;10.79;72.93;100383.09;10305823;28;96825;-78
2022/05/11 02:11:26;;;;;;;0.10;0.10;;;12.20;99.90;;;10.76;73.33;100382.63;10336293;28;96645;-78
2022/05/11 02:16:29;;;;;;;0.57;0.30;;;12.20;99.90;;;10.77;73.43;100378.97;10329992;28;98190;-78
2022/05/11 02:21:32;;;;;;;0.60;0.27;;;12.20;99.90;;;10.72;73.53;100379.44;10364916;28;96662;-77
2022/05/11 02:26:35;;;;;;;0.50;0.37;;;12.20;99.90;;;10.64;73.93;100374.94;10298853;28;96586;-78
2022/05/11 02:31:39;;;;;;;0.33;0.30;;;12.10;99.90;;;10.60;74.14;100380.75;10325300;28;97091;-78
2022/05/11 02:36:42;;;;;;;1.13;0.57;;;12.10;99.90;;;10.59;74.39;100379.09;10319518;28;98445;-78
2022/05/11 02:41:45;;;;;;;1.23;0.60;;;12.10;99.90;;;10.57;74.68;100373.94;10363612;28;98383;-78
2022/05/11 02:46:47;;;;;;;1.03;0.23;;;12.00;99.90;;;10.54;74.86;100371.59;10351273;28;97149;-77
2022/05/11 02:51:50;;;;;;;0.17;0.17;;;12.00;99.90;;;10.52;75.09;100378.09;10364506;28;96620;-77
2022/05/11 02:56:54;;;;;;;0.50;0.40;;;11.90;99.90;;;10.49;75.16;100376.56;10345625;28;97452;-78
2022/05/11 03:01:57;;;;;;;0.57;0.50;;;11.90;99.90;;;10.45;75.28;100372.59;10335818;28;98383;-77
2022/05/11 03:07:00;;;;;;;0.50;0.50;;;11.90;99.90;;;10.40;75.50;100367.78;10328606;28;96694;-77
2022/05/11 03:12:04;;;;;;;0.40;0.27;;;11.80;99.90;;;10.37;75.80;100380.53;10334998;28;97364;-77
2022/05/11 03:17:08;;;;;;;10.37;4.13;;;11.80;99.90;;;10.35;76.17;100378.03;10349714;28;96677;-77
2022/05/11 03:22:11;;;;;;;0.50;0.37;;;11.70;99.90;;;10.36;76.51;100381.53;10366311;28;96548;-77
2022/05/11 03:27:14;;;;;;;0.30;0.20;;;11.70;99.90;;;10.36;76.78;100385.00;10319249;28;96975;-77
2022/05/11 03:37:39;;;;;;;0.43;0.33;;;11.80;99.90;;;10.43;76.70;100398.47;10364182;28;96468;-77
2022/05/11 03:42:43;;;;;;;0.40;0.40;;;11.80;99.90;;;10.43;77.18;100398.47;10335874;28;96739;-76
2022/05/11 03:47:47;;;;;;;0.47;0.33;;;11.80;99.90;;;10.49;77.65;100397.00;10331606;28;98138;-77
2022/05/11 03:52:52;;;;;;;0.33;0.33;;;11.80;99.90;;;10.55;77.83;100401.66;10338383;28;96540;-76
2022/05/11 03:57:55;;;;;;;0.20;0.20;;;11.90;99.90;;;10.66;77.97;100409.34;10348804;28;96717;-78
2022/05/11 04:02:58;;;;;;;0.57;0.47;;;12.00;99.90;;;10.77;77.89;100406.38;10331878;28;96834;-77
2022/05/11 04:08:02;;;;;;;0.30;0.30;;;12.10;99.90;;;10.88;78.05;100414.03;10315259;28;96638;-77
2022/05/11 04:13:05;;;;;;;0.23;0.20;;;12.20;99.90;;;11.03;78.25;100411.53;10352631;28;96578;-76
2022/05/11 04:18:08;;;;;;;0.17;0.13;;;12.30;99.90;;;11.17;78.42;100404.75;10344609;28;98624;-77
2022/05/11 04:23:11;;;;;;;1.90;1.00;;;12.50;99.90;;;11.31;78.42;100413.88;10323356;28;98239;-76
2022/05/11 04:28:14;;;;;;;0.67;0.50;;;12.60;99.90;;;11.45;78.52;100421.16;10338974;28;98383;-76
2022/05/11 04:33:16;;;;;;;0.17;0.13;;;12.70;99.90;;;11.63;78.56;100415.66;10352096;28;96740;-77
2022/05/11 04:38:20;;;;;;;1.20;1.03;;;12.90;99.90;;;11.84;78.48;100423.13;10322961;28;96595;-77
2022/05/11 04:43:23;;;;;;;0.60;0.53;;;13.10;99.90;;;12.04;78.06;100419.06;10317435;28;98421;-78
2022/05/11 04:48:26;;;;;;;0.67;0.40;;;13.30;99.90;;;12.26;77.40;100414.81;10358303;28;97391;-77
2022/05/11 04:53:30;;;;;;;1.57;0.73;;;13.50;99.90;;;12.45;77.14;100419.72;10314185;28;96988;-77
2022/05/11 04:58:33;;;;;;;0.40;0.40;;;13.70;99.90;;;12.70;77.11;100412.41;10334671;28;97724;-78
2022/05/11 05:03:36;;;;;;;0.60;0.37;;;13.90;99.90;;;12.95;76.21;100415.75;10317321;28;97352;-78
2022/05/11 05:08:40;;;;;;;0.63;0.40;;;14.20;99.90;;;13.18;75.21;100414.91;10306413;28;96624;-78
2022/05/11 05:13:43;;;;;;;0.83;0.67;;;14.40;99.90;;;13.40;74.55;100424.75;10335481;28;97020;-78
2022/05/11 05:18:46;;;;;;;1.10;0.90;;;14.60;99.90;;;13.62;73.13;100420.41;10322239;28;96922;-77
2022/05/11 05:23:49;;;;;;;0.40;0.40;;;14.80;99.90;;;13.83;71.96;100431.16;10326327;28;97108;-78
2022/05/11 05:34:14;;;;;;;1.53;0.60;;;15.20;99.90;;;14.26;71.36;100420.66;10335006;28;97420;-77
2022/05/11 05:39:17;;;;;;;0.90;0.60;;;15.40;99.90;;;14.50;70.28;100416.03;10338267;28;96781;-75
2022/05/11 05:44:20;;;;;;;0.70;0.50;;;15.60;99.90;;;14.63;69.33;100422.38;10328168;28;96638;-77
2022/05/11 05:49:23;;;;;;;1.02;0.50;;;15.70;99.90;;;14.78;68.46;100426.84;10307921;28;97772;-77
2022/05/11 05:54:30;;;;;;;0.55;0.55;;;15.90;99.90;;;14.90;68.45;100425.34;10336423;28;96661;-76
2022/05/11 05:59:33;;;;;;;3.92;0.85;;;16.10;99.90;;;15.07;66.51;100421.38;10354498;28;97776;-76
2022/05/11 06:04:36;;;;;;;1.00;0.80;;;16.20;99.90;;;15.23;66.23;100413.09;10328463;28;96556;-77
2022/05/11 06:09:40;;;;;;;1.65;1.52;;;16.40;99.90;;;15.44;65.97;100416.75;10321747;28;98410;-77
2022/05/11 06:14:43;;;;;;;2.38;0.90;;;16.60;99.90;;;15.66;64.98;100421.09;10351244;28;96870;-77
2022/05/11 06:19:47;;;;;;;1.05;0.73;;;16.80;99.40;;;15.91;64.00;100423.31;10304548;28;97525;-77
2022/05/11 06:24:49;;;;;;;0.35;0.35;;;17.10;98.60;;;16.14;63.60;100426.53;10312704;28;96619;-77
2022/05/11 06:29:56;;;;;;;0.65;0.63;;;17.30;97.80;;;16.42;62.38;100421.06;10328571;28;96600;-77
2022/05/11 06:34:59;;;;;;;0.95;0.57;;;17.60;97.00;;;16.69;61.88;100418.47;10344327;28;98988;-77
2022/05/11 06:40:03;;;;;;;0.98;0.90;;;17.80;96.70;;;16.99;61.12;100419.81;10349741;28;96992;-78
2022/05/11 06:45:08;;;;;;;0.30;0.22;;;18.10;96.10;;;17.29;61.04;100409.50;10326122;28;98144;-78
2022/05/11 06:50:12;;;;;;;1.45;0.82;;;18.40;95.50;;;17.63;60.39;100415.66;10363619;28;96570;-78
2022/05/11 07:00:37;;;;;;;1.88;1.05;;;19.00;95.20;;;18.23;59.35;100410.19;10325254;28;96749;-78
2022/05/11 07:05:41;;;;;;;1.13;0.70;;;19.30;94.30;;;18.52;59.63;100406.13;10335541;28;98112;-77
2022/05/11 07:12:17;;;;;;;1.00;0.90;;;19.60;94.20;;;18.84;58.19;100399.78;10339826;28;96590;-77
2022/05/11 07:16:07;;;;;;;3.50;0.95;;;19.90;92.00;;;19.17;57.49;100387.94;10295093;28;96518;-77
2022/05/11 07:21:10;;;;;;;0.68;0.50;;;20.20;92.40;;;19.50;56.92;100388.47;10318723;28;97485;-77
2022/05/11 07:26:13;;;;;;;1.20;0.60;;;20.60;91.80;;;19.83;56.50;100381.94;10352926;28;97762;-77
2022/05/11 07:31:16;;;;;;;0.32;0.32;;;20.90;91.40;;;20.18;55.74;100382.16;10349285;28;97001;-78
2022/05/11 07:36:20;;;;;;;1.48;0.63;;;21.20;90.70;;;20.49;55.03;100381.19;10325744;28;96802;-88
2022/05/11 07:41:24;;;;;;;0.60;0.50;;;21.50;90.00;;;20.80;54.34;100373.88;10339207;28;97644;-85
2022/05/11 07:46:33;;;;;;;0.77;0.65;;;21.80;88.70;;;21.10;52.98;100379.22;10327876;28;98263;-85
2022/05/11 07:51:37;;;;;;;1.25;0.50;;;22.10;85.50;;;21.43;50.02;100373.31;10339320;28;96705;-78
2022/05/11 08:02:02;;;;;;;0.47;0.40;;;22.70;71.60;;;21.90;42.78;100357.06;10340228;28;97424;-80
2022/05/11 08:07:05;;;;;;;0.50;0.30;;;22.90;67.10;;;22.09;41.41;100358.56;10339447;28;97038;-78
2022/05/11 08:12:09;;;;;;;0.75;0.60;;;23.20;63.80;;;22.40;40.47;100351.03;10314568;28;98464;-78
2022/05/11 08:17:11;;;;;;;0.88;0.70;;;23.40;62.20;;;22.63;39.77;100356.34;10356873;28;96822;-86
2022/05/11 08:22:14;;;;;;;0.68;0.30;;;23.60;61.70;;;22.88;40.33;100357.88;10347483;28;98498;-85
2022/05/11 08:27:22;;;;;;;0.65;0.45;;;23.90;58.00;;;23.01;38.47;100349.44;10330995;28;97228;-78
2022/05/11 08:37:58;;;;;;;0.75;0.32;;;24.20;58.70;;;23.35;38.32;100342.13;10331439;28;98218;-82
2022/05/11 08:43:02;;;;;;;0.70;0.40;;;24.40;56.10;;;23.47;37.07;100345.53;10348910;28;96920;-78
2022/05/11 08:48:16;;;;;;;0.85;0.38;;;24.50;56.10;;;23.69;36.14;100336.63;10347834;28;96701;-78
2022/05/11 08:53:40;;;;;;;0.20;0.20;;;24.60;55.40;;;23.80;35.28;100337.59;10303192;28;96754;-81
2022/05/11 08:58:49;;;;;;;0.43;0.30;;;24.80;52.70;;;23.88;35.17;100331.75;10344532;28;98548;-91
2022/05/11 09:03:54;;;;;;;0.20;0.20;;;24.80;53.60;;;23.99;34.58;100330.78;10301271;28;96611;-77
2022/05/11 09:09:00;;;;;;;0.77;0.52;;;25.10;50.50;;;24.16;35.14;100328.81;10310667;28;98647;-91
2022/05/11 09:14:03;;;;;;;1.20;0.50;;;25.20;51.40;;;24.31;34.12;100333.59;10364174;28;97941;-90
2022/05/11 09:19:17;;;;;;;0.63;0.50;;;25.40;50.90;;;24.53;34.89;100325.44;10326740;28;97098;-89
2022/05/11 09:24:22;;;;;;;1.15;0.50;;;25.50;52.40;;;24.72;34.46;100329.44;10351212;28;98359;-78
2022/05/11 09:29:38;;;;;;;1.85;0.60;;;25.80;51.60;;;24.80;33.11;100328.94;10332667;28;96604;-79
2022/05/11 09:34:41;;;;;;;0.65;0.40;;;25.90;47.90;;;24.85;33.19;100322.75;10318739;28;98893;-78
2022/05/11 09:40:12;;;;;;;0.70;0.45;;;25.90;48.80;;;24.96;32.72;100331.81;10342003;28;98622;-79
2022/05/11 09:45:49;;;;;;;1.25;0.40;;;26.00;48.60;;;25.09;32.69;100321.31;10322353;28;97614;-79
2022/05/11 09:50:57;;;;;;;0.60;0.43;;;26.10;47.50;;;25.19;32.54;100325.19;10288266;28;96690;-85
2022/05/11 09:56:33;;;;;;;0.40;0.40;;;26.20;49.50;;;25.49;32.60;100324.56;10331591;28;97520;-78
2022/05/11 10:01:36;;;;;;;0.75;0.50;;;26.40;48.30;;;25.75;32.00;100326.38;10328096;28;96892;-79
2022/05/11 10:06:52;;;;;;;0.98;0.57;;;26.70;48.20;;;25.89;31.24;100313.91;10325431;28;97044;-78
2022/05/11 10:11:56;;;;;;;1.13;0.40;;;27.00;48.70;;;25.97;30.99;100312.59;10318569;28;97451;-79
2022/05/11 10:23:07;;;;;;;0.73;0.55;;;27.00;46.70;;;25.85;31.04;100318.28;10313626;28;97294;-78
2022/05/11 10:28:10;;;;;;;1.98;0.60;;;27.00;47.00;;;25.80;31.94;100310.06;10294085;28;96671;-78
2022/05/11 10:33:34;;;;;;;0.63;0.47;;;26.90;47.90;;;26.04;32.58;100306.91;10311123;28;96489;-78
2022/05/11 10:39:29;;;;;;;0.40;0.20;;;27.00;47.90;;;26.38;31.15;100302.59;10333241;28;96934;-78
2022/05/11 10:44:38;;;;;;;0.60;0.35;;;27.40;48.10;;;26.78;31.36;100289.31;10295020;28;96436;-78
2022/05/11 10:50:10;;;;;;;0.60;0.40;;;27.80;47.80;;;26.82;30.68;100287.69;10298130;28;96536;-78
2022/05/11 10:55:40;;;;;;;0.85;0.50;;;27.90;46.10;;;26.62;30.95;100288.50;10305261;28;98652;-77
2022/05/11 11:00:51;;;;;;;0.65;0.40;;;27.80;46.20;;;26.55;30.10;100290.69;10307025;28;96461;-78
2022/05/11 11:11:57;;;;;;;1.33;0.85;;;27.90;45.50;;;27.07;29.46;100278.69;10334158;28;96608;-79
2022/05/11 11:17:04;;;;;;;1.23;0.55;;;28.10;45.10;;;26.88;29.33;100284.69;10332415;28;96596;-79
2022/05/11 11:22:07;;;;;;;1.63;1.00;;;28.00;45.40;;;26.86;30.50;100270.50;10301912;28;96685;-76
2022/05/11 11:27:10;;;;;;;1.52;0.68;;;28.00;46.10;;;27.16;28.96;100261.47;10332774;28;96534;-77
2022/05/11 11:32:20;;;;;;;0.50;0.25;;;28.20;44.30;;;27.33;29.37;100257.63;10329966;28;97536;-77
2022/05/11 11:37:32;;;;;;;2.10;0.70;;;28.20;44.70;;;27.24;29.43;100253.84;10293600;28;96518;-77
2022/05/11 11:42:42;;;;;;;0.45;0.45;;;28.20;45.10;;;27.20;28.86;100246.22;10323847;28;96606;-77
2022/05/11 11:48:07;;;;;;;0.63;0.40;;;28.20;44.10;;;26.78;29.33;100251.97;10330084;28;98199;-78
2022/05/11 11:53:27;;;;;;;0.43;0.30;;;27.90;44.40;;;26.28;30.83;100242.69;10327684;28;96647;-77
2022/05/11 11:58:31;;;;;;;1.13;0.77;;;27.40;45.40;;;25.99;29.84;100245.06;10339690;28;98463;-78
2022/05/11 12:03:57;;;;;;;1.80;0.50;;;27.10;44.00;;;26.23;30.39;100242.66;10332078;28;96683;-77
2022/05/11 12:20:17;;;;;;;0.82;0.52;;;27.70;44.00;;;26.89;29.00;100225.53;10331292;28;96578;-78
2022/05/11 12:25:33;;;;;;;0.40;0.30;;;27.80;44.70;;;27.29;29.02;100219.19;10353150;28;96889;-78
2022/05/11 12:30:43;;;;;;;0.63;0.60;;;28.10;44.60;;;27.14;29.28;100216.50;10329760;28;96961;-78
2022/05/11 12:35:49;;;;;;;0.90;0.55;;;28.10;44.70;;;26.79;28.13;100217.34;10356384;28;96522;-78
2022/05/11 12:40:54;;;;;;;1.27;0.50;;;27.90;43.90;;;26.42;29.15;100207.56;10330063;28;96479;-80
2022/05/11 12:46:04;;;;;;;0.60;0.50;;;27.60;44.70;;;26.21;30.59;100201.28;10338398;28;98482;-78
2022/05/11 12:51:14;;;;;;;0.85;0.50;;;27.40;45.60;;;26.42;30.32;100200.22;10348799;28;96626;-79
2022/05/11 12:56:24;;;;;;;0.47;0.30;;;27.50;45.50;;;26.92;28.98;100190.31;10357312;28;97315;-79
2022/05/11 13:01:31;;;;;;;0.95;0.45;;;28.00;45.50;;;27.04;29.63;100194.66;10334462;28;96649;-79
2022/05/11 13:06:45;;;;;;;1.10;0.70;;;28.20;44.80;;;27.32;28.95;100190.53;10359726;28;96600;-79
2022/05/11 13:11:49;;;;;;;0.55;0.45;;;28.60;42.20;;;27.80;28.22;100180.75;10318303;28;98152;-80
2022/05/11 13:16:58;;;;;;;1.00;0.50;;;29.30;43.50;;;28.33;27.11;100175.50;10328588;28;96601;-80
2022/05/11 13:22:10;;;;;;;;;;;30.20;40.90;;;28.77;27.39;100172.59;10300124;28;96665;-80
2022/05/11 13:27:37;;;;;;;1.13;0.50;;;30.80;41.70;;;29.28;26.14;100165.78;10329380;28;96646;-80
2022/05/11 13:32:51;;;;;;;1.33;0.45;;;31.30;39.70;;;29.57;25.70;100152.03;10343149;28;96754;-80
2022/05/11 13:38:10;;;;;;;0.38;0.38;;;31.40;40.60;;;29.71;26.56;100141.13;10314902;28;97768;-80
2022/05/11 13:43:29;;;;;;;1.70;0.65;;;31.20;42.00;;;29.97;25.33;100128.66;10318272;28;96608;-80
2022/05/11 13:48:40;;;;;;;0.40;0.30;;;31.20;41.20;;;30.04;25.06;100129.09;10352861;28;98092;-80
2022/05/11 13:53:45;;;;;;;1.50;0.57;;;31.10;40.40;;;30.16;24.67;100125.09;10339757;28;96648;-80
2022/05/11 13:59:11;;;;;;;0.50;0.40;;;31.00;39.40;;;30.11;24.83;100129.59;10330504;28;97435;-79
2022/05/11 14:04:46;;;;;;;1.48;0.80;;;30.80;40.60;;;29.95;26.11;100122.69;10354386;28;98015;-80
2022/05/11 14:09:50;;;;;;;1.13;0.55;;;30.60;41.20;;;29.93;26.23;100113.97;10342184;28;96631;-79
2022/05/11 14:14:53;;;;;;;2.47;0.70;;;30.50;42.10;;;29.92;25.72;100112.31;10295086;28;96617;-80
2022/05/11 14:20:00;;;;;;;1.85;0.90;;;30.50;41.90;;;29.95;25.49;100114.47;10372519;28;96508;-80
2022/05/11 14:25:03;;;;;;;0.35;0.25;;;30.50;41.00;;;29.91;25.11;100107.94;10353978;28;96582;-80
2022/05/11 14:30:08;;;;;;;1.30;0.47;;;30.50;40.60;;;29.64;25.33;100105.91;10341778;28;96571;-80
2022/05/11 14:35:19;;;;;;;0.20;0.20;;;30.40;40.50;;;29.70;26.24;100101.19;10331210;28;96753;-80
2022/05/11 14:40:27;;;;;;;0.55;0.50;;;30.30;41.90;;;29.78;25.30;100103.22;10329352;28;96589;-80
2022/05/11 14:45:33;;;;;;;0.40;0.40;;;30.40;40.60;;;29.59;24.93;100106.00;10349752;28;97413;-77
2022/05/11 14:50:36;;;;;;;0.90;0.43;;;30.20;40.10;;;29.52;26.24;100098.16;10329750;28;96607;-80
2022/05/11 14:55:44;;;;;;;0.80;0.40;;;30.20;41.50;;;29.52;26.25;100100.88;10334419;28;97862;-81
2022/05/11 15:06:16;;;;;;;1.13;0.60;;;30.20;41.00;;;29.20;25.94;100093.34;10321295;28;97531;-78
2022/05/11 15:17:04;;;;;;;0.43;0.35;;;30.00;40.90;;;29.08;26.13;100081.22;10309014;28;98932;-78
2022/05/11 15:22:07;;;;;;;1.58;0.57;;;30.00;41.40;;;29.16;25.88;100086.03;10332578;28;96695;-81
2022/05/11 15:27:10;;;;;;;0.82;0.55;;;30.10;41.10;;;29.39;26.10;100087.91;10327494;28;96897;-78
2022/05/11 15:32:24;;;;;;;1.40;0.85;;;30.30;41.30;;;29.43;25.69;100074.44;10311280;28;98394;-78
2022/05/11 15:37:27;;;;;;;1.33;0.40;;;30.50;40.50;;;29.35;25.81;100084.13;10342624;28;96839;-78
2022/05/11 15:42:30;;;;;;;0.80;0.55;;;30.40;40.10;;;29.46;26.75;100076.59;10331021;28;96621;-77
2022/05/11 15:47:34;;;;;;;0.57;0.32;;;30.50;41.60;;;29.56;26.59;100076.44;10343062;28;97055;-77
2022/05/11 15:52:54;;;;;;;0.57;0.40;;;30.50;41.30;;;29.55;26.18;100077.56;10339187;28;96606;-77
2022/05/11 15:57:57;;;;;;;0.60;0.40;;;30.50;41.10;;;29.65;25.80;100066.47;10328669;28;96717;-77
2022/05/11 16:03:02;;;;;;;0.40;0.40;;;30.50;40.10;;;29.62;25.57;100068.97;10348088;28;96900;-77
2022/05/11 16:08:05;;;;;;;0.30;0.30;;;30.40;40.40;;;29.74;25.94;100059.19;10334312;28;96607;-77
2022/05/11 16:13:15;;;;;;;0.55;0.35;;;30.50;40.90;;;29.81;25.06;100064.31;10345034;28;97594;-77
2022/05/11 16:23:41;;;;;;;0.20;0.20;;;30.70;41.10;;;29.74;25.20;100058.38;10326643;28;98844;-80
2022/05/11 16:28:45;;;;;;;0.65;0.50;;;30.60;40.20;;;29.74;25.02;100063.84;10354152;28;97147;-80
2022/05/11 16:33:49;;;;;;;0.55;0.55;;;30.50;39.60;;;29.70;25.93;100063.66;10361284;28;100453;-79
2022/05/11 16:38:52;;;;;;;0.60;0.40;;;30.50;41.00;;;29.68;25.97;100060.38;10322738;28;96620;-77
2022/05/11 16:43:58;;;;;;;0.47;0.40;;;30.50;40.90;;;29.42;26.05;100059.94;10335315;28;96759;-78
2022/05/11 16:49:01;;;;;;;1.90;0.50;;;30.30;40.90;;;29.07;26.99;100061.25;10306722;28;96671;-78
2022/05/11 16:54:04;;;;;;;0.82;0.60;;;30.00;41.70;;;28.67;28.18;100054.31;10342668;28;98508;-78
2022/05/11 16:59:07;;;;;;;0.68;0.50;;;29.70;42.50;;;28.14;27.69;100059.78;10338784;28;97069;-78
2022/05/11 17:04:10;;;;;;;0.70;0.60;;;29.40;41.70;;;27.59;28.53;100067.28;10317549;28;96800;-78
2022/05/11 17:09:13;;;;;;;0.73;0.60;;;29.00;42.90;;;27.07;30.64;100066.78;10319116;28;98685;-78
2022/05/11 17:14:19;;;;;;;1.45;0.68;;;28.50;44.20;;;26.66;32.64;100057.94;10331474;28;97337;-78
2022/05/11 17:19:24;;;;;;;1.50;0.70;;;28.00;45.90;;;26.24;35.44;100061.81;10328890;28;96766;-78
2022/05/11 17:24:27;;;;;;;0.70;0.63;;;27.60;48.40;;;25.49;38.17;100069.69;10317377;28;96759;-78
2022/05/11 17:29:30;;;;;;;0.82;0.65;;;27.00;49.30;;;24.86;38.80;100070.81;10328101;28;98379;-78
2022/05/11 17:34:41;;;;;;;0.60;0.47;;;26.30;49.30;;;24.31;39.43;100072.91;10320877;28;97433;-77
2022/05/11 17:39:44;;;;;;;0.75;0.43;;;25.80;50.00;;;23.86;39.57;100076.09;10303614;28;96531;-78
2022/05/11 17:44:47;;;;;;;1.20;0.70;;;25.30;50.40;;;23.53;39.96;100085.25;10330245;28;97049;-77
2022/05/11 17:49:50;;;;;;;1.10;0.50;;;24.90;50.70;;;23.20;40.49;100090.56;10339098;28;96878;-78
2022/05/11 17:54:54;;;;;;;0.73;0.38;;;24.50;51.20;;;22.90;40.47;100085.59;10336893;28;97123;-78
2022/05/11 17:59:58;;;;;;;0.50;0.40;;;24.20;51.50;;;22.62;40.62;100096.59;10336359;28;96715;-78
2022/05/11 18:05:01;;;;;;;0.93;0.60;;;23.90;51.70;;;22.42;40.91;100089.78;10340068;28;96767;-77
2022/05/11 18:10:07;;;;;;;0.55;0.40;;;23.70;52.30;;;22.20;41.24;100099.75;10334976;28;97567;-78
2022/05/11 18:15:11;;;;;;;0.95;0.60;;;23.50;52.40;;;21.97;42.04;100108.81;10302955;28;96679;-78
2022/05/11 18:20:19;;;;;;;1.30;0.80;;;23.30;53.40;;;21.71;42.96;100098.59;10321765;28;97410;-78
2022/05/11 18:25:22;;;;;;;1.45;0.63;;;23.00;53.70;;;21.49;43.29;100106.59;10320967;28;98147;-77
2022/05/11 18:30:27;;;;;;;0.60;0.50;;;22.80;54.50;;;21.28;44.04;100110.75;10307661;28;96738;-78
2022/05/11 18:35:30;;;;;;;1.17;0.50;;;22.60;55.20;;;21.12;44.76;100115.06;10352128;28;96688;-78
2022/05/11 18:40:34;;;;;;;2.15;0.57;;;22.40;55.60;;;20.97;45.34;100128.22;10329310;28;97247;-78
2022/05/11 18:45:37;;;;;;;0.88;0.55;;;22.20;56.20;;;20.84;45.79;100138.22;10329759;28;96594;-78
2022/05/11 18:50:41;;;;;;;1.70;0.80;;;22.10;57.80;;;20.70;46.76;100136.03;10343029;28;98260;-78
2022/05/11 18:55:44;;;;;;;0.93;0.68;;;21.90;57.40;;;20.52;47.54;100137.78;10322392;28;96581;-78
2022/05/11 19:00:47;;;;;;;0.35;0.32;;;21.80;59.00;;;20.34;48.17;100150.53;10310890;28;96655;-78
2022/05/11 19:05:51;;;;;;;1.75;0.65;;;21.60;60.10;;;20.14;48.88;100154.34;10280157;28;96715;-78
2022/05/11 19:10:56;;;;;;;0.75;0.40;;;21.40;61.20;;;19.97;49.70;100159.59;10297966;28;97517;-79
2022/05/11 19:16:00;;;;;;;0.45;0.25;;;21.20;61.50;;;19.81;50.00;100160.25;10295788;28;98614;-78
2022/05/11 19:21:04;;;;;;;0.63;0.50;;;21.00;62.30;;;19.66;50.97;100166.03;10344094;28;98284;-78
2022/05/11 19:26:08;;;;;;;1.15;0.60;;;20.80;63.60;;;19.44;50.92;100171.09;10361230;28;96592;-78
2022/05/11 19:31:11;;;;;;;1.38;0.85;;;20.70;64.20;;;19.27;51.73;100169.22;10340533;28;96894;-78
2022/05/11 19:36:14;;;;;;;1.00;0.55;;;20.40;64.80;;;19.11;52.37;100167.94;10302528;28;97875;-78
2022/05/11 19:41:18;;;;;;;1.25;0.52;;;20.20;65.80;;;18.97;52.57;100162.72;10324838;28;99025;-80
2022/05/11 19:46:24;;;;;;;1.05;0.77;;;20.10;65.00;;;18.84;52.78;100165.56;10320605;28;96691;-79
2022/05/11 19:51:27;;;;;;;0.85;0.45;;;20.00;65.90;;;18.72;52.50;100159.25;10304549;28;96965;-79
2022/05/11 19:56:30;;;;;;;0.40;0.30;;;19.90;65.10;;;18.63;53.08;100169.44;10320427;28;96915;-79
2022/05/11 20:01:34;;;;;;;0.38;0.38;;;19.80;66.50;;;18.52;53.80;100164.75;10308073;28;97278;-78
2022/05/11 20:06:37;;;;;;;0.50;0.40;;;19.60;67.40;;;18.37;54.58;100165.13;10310157;28;96737;-79
2022/05/11 20:11:41;;;;;;;1.70;0.80;;;19.50;67.90;;;18.24;54.35;100165.22;10312019;28;97914;-78
2022/05/11 20:16:44;;;;;;;1.38;0.65;;;19.40;67.50;;;18.17;54.21;100169.81;10309677;28;97442;-79
2022/05/11 20:21:48;;;;;;;0.28;0.28;;;19.30;67.30;;;18.09;54.41;100172.78;10309603;28;97801;-79
2022/05/11 20:26:51;;;;;;;0.70;0.40;;;19.20;67.80;;;18.01;54.44;100171.19;10306157;28;98475;-79
2022/05/11 20:37:17;;;;;;;1.52;0.73;;;19.10;67.20;;;17.88;54.97;100169.41;10300910;28;96557;-79
2022/05/11 20:42:20;;;;;;;0.57;0.32;;;19.00;67.30;;;17.80;56.21;100174.19;10356191;28;96563;-78
2022/05/11 20:47:24;;;;;;;0.70;0.47;;;19.00;67.60;;;17.73;56.99;100173.41;10350368;28;96457;-79
2022/05/11 20:52:27;;;;;;;1.00;0.60;;;19.00;68.30;;;17.64;57.93;100170.94;10324333;28;97253;-78
2022/05/11 20:57:30;;;;;;;1.20;0.70;;;18.90;68.60;;;17.50;58.36;100180.09;10305594;28;97012;-79
2022/05/11 21:02:33;;;;;;;1.95;1.15;;;18.80;70.50;;;17.36;58.66;100173.13;10318580;28;99583;-79
2022/05/11 21:07:36;;;;;;;1.20;0.57;;;18.70;70.00;;;17.21;59.28;100185.97;10327558;28;98629;-77
2022/05/11 21:12:39;;;;;;;0.70;0.30;;;18.60;73.30;;;16.91;60.11;100191.00;10315040;28;96718;-78
2022/05/11 21:17:43;;;;;;;5.88;1.08;;;18.20;74.70;;;16.66;60.77;100194.31;10341463;28;96976;-79
2022/05/11 21:22:46;;;;;;;1.55;0.73;;;17.90;75.90;;;16.54;61.09;100193.28;10322645;28;96603;-79
2022/05/11 21:27:50;;;;;;;1.33;0.73;;;17.70;76.30;;;16.52;61.44;100203.41;10328043;28;97822;-79
2022/05/11 21:32:53;;;;;;;0.73;0.55;;;17.70;76.80;;;16.49;61.63;100204.66;10360214;28;98656;-78
2022/05/11 21:37:56;;;;;;;0.70;0.40;;;17.60;77.40;;;16.43;61.77;100201.97;10327386;28;96548;-77
2022/05/11 21:42:59;;;;;;;0.57;0.43;;;17.60;78.20;;;16.34;61.77;100195.97;10309192;28;99640;-78
2022/05/11 21:48:05;;;;;;;0.60;0.40;;;17.50;77.30;;;16.28;62.40;100196.81;10305724;28;96623;-79
2022/05/11 21:53:09;;;;;;;1.35;1.00;;;17.50;78.70;;;16.18;62.35;100189.16;10337657;28;96820;-80
2022/05/11 21:58:14;;;;;;;1.48;0.88;;;17.40;78.50;;;16.09;62.89;100193.06;10346137;28;97358;-77
2022/05/11 22:03:17;;;;;;;1.27;0.80;;;17.30;79.60;;;15.96;63.34;100196.56;10329308;28;96557;-78
2022/05/11 22:08:21;;;;;;;0.90;0.30;;;17.20;80.20;;;15.84;63.66;100189.31;10330179;28;96749;-80
2022/05/11 22:13:25;;;;;;;0.88;0.80;;;17.10;82.70;;;15.74;63.93;100198.56;10329910;28;96881;-79
2022/05/11 22:18:28;;;;;;;1.10;0.60;;;17.00;83.40;;;15.68;63.78;100191.31;10330111;28;98296;-79